sensor_id;sensor_type;location;lat;lon;timestamp;P1;durP1;ratioP1;P2;durP2;ratioP2
13368;SDS011;6753;52.520;13.450;2023-04-03T00:00:07;860.83;;;758.00;;
13368;SDS011;6753;52.520;13.450;2023-04-03T00:00:20;862.75;;;758.50;;
13368;SDS011;6753;52.520;13.450;2023-04-03T00:00:31;862.70;;;757.97;;
13368;SDS011;6753;52.520;13.450;2023-04-03T00:00:45;863.42;;;759.20;;
13368;SDS011;6753;52.520;13.450;2023-04-03T00:00:55;864.72;;;759.50;;
13368;SDS011;6753;52.520;13.450;2023-04-03T00:01:07;862.35;;;758.65;;
13368;SDS011;6753;52.520;13.450;2023-04-03T00:01:19;860.85;;;757.67;;
13368;SDS011;6753;52.520;13.450;2023-04-03T00:01:30;860.70;;;759.00;;
13368;SDS011;6753;52.520;13.450;2023-04-03T00:01:41;861.33;;;759.13;;
13368;SDS011;6753;52.520;13.450;2023-04-03T00:01:52;860.30;;;758.13;;
13368;SDS011;6753;52.520;13.450;2023-04-03T00:02:03;862.67;;;758.97;;
13368;SDS011;6753;52.520;13.450;2023-04-03T00:02:13;861.67;;;759.53;;
13368;SDS011;6753;52.520;13.450;2023-04-03T00:02:25;862.70;;;760.03;;
13368;SDS011;6753;52.520;13.450;2023-04-03T00:02:36;859.55;;;758.58;;
13368;SDS011;6753;52.520;13.450;2023-04-03T00:02:46;858.15;;;756.35;;
13368;SDS011;6753;52.520;13.450;2023-04-03T00:02:57;854.88;;;755.78;;
13368;SDS011;6753;52.520;13.450;2023-04-03T00:03:08;856.93;;;756.43;;
13368;SDS011;6753;52.520;13.450;2023-04-03T00:03:19;856.33;;;755.65;;
13368;SDS011;6753;52.520;13.450;2023-04-03T00:03:31;856.75;;;755.08;;
13368;SDS011;6753;52.520;13.450;2023-04-03T00:03:42;860.15;;;756.00;;
13368;SDS011;6753;52.520;13.450;2023-04-03T00:03:54;863.00;;;756.97;;
13368;SDS011;6753;52.520;13.450;2023-04-03T00:04:05;861.13;;;755.15;;
13368;SDS011;6753;52.520;13.450;2023-04-03T00:04:16;857.90;;;753.78;;
13368;SDS011;6753;52.520;13.450;2023-04-03T00:04:27;857.00;;;753.95;;
13368;SDS011;6753;52.520;13.450;2023-04-03T00:04:37;851.65;;;753.55;;
13368;SDS011;6753;52.520;13.450;2023-04-03T00:04:48;848.83;;;753.13;;
13368;SDS011;6753;52.520;13.450;2023-04-03T00:04:59;848.47;;;754.38;;
13368;SDS011;6753;52.520;13.450;2023-04-03T00:05:10;848.50;;;754.33;;
13368;SDS011;6753;52.520;13.450;2023-04-03T00:05:21;848.05;;;753.47;;
13368;SDS011;6753;52.520;13.450;2023-04-03T00:05:33;850.95;;;753.15;;
13368;SDS011;6753;52.520;13.450;2023-04-03T00:05:43;853.75;;;753.75;;
13368;SDS011;6753;52.520;13.450;2023-04-03T00:05:55;855.20;;;753.67;;
13368;SDS011;6753;52.520;13.450;2023-04-03T00:06:06;856.70;;;754.72;;
13368;SDS011;6753;52.520;13.450;2023-04-03T00:06:18;856.03;;;754.53;;
13368;SDS011;6753;52.520;13.450;2023-04-03T00:06:29;855.08;;;754.40;;
13368;SDS011;6753;52.520;13.450;2023-04-03T00:06:41;849.60;;;751.92;;
13368;SDS011;6753;52.520;13.450;2023-04-03T00:06:52;845.50;;;749.58;;
13368;SDS011;6753;52.520;13.450;2023-04-03T00:07:02;841.22;;;747.80;;
13368;SDS011;6753;52.520;13.450;2023-04-03T00:07:15;838.27;;;745.20;;
13368;SDS011;6753;52.520;13.450;2023-04-03T00:07:26;840.92;;;746.72;;
13368;SDS011;6753;52.520;13.450;2023-04-03T00:07:36;841.88;;;745.90;;
13368;SDS011;6753;52.520;13.450;2023-04-03T00:07:47;845.45;;;746.58;;
13368;SDS011;6753;52.520;13.450;2023-04-03T00:07:59;847.30;;;747.50;;
13368;SDS011;6753;52.520;13.450;2023-04-03T00:08:11;846.83;;;746.83;;
13368;SDS011;6753;52.520;13.450;2023-04-03T00:08:23;846.78;;;746.28;;
13368;SDS011;6753;52.520;13.450;2023-04-03T00:08:33;844.60;;;745.85;;
13368;SDS011;6753;52.520;13.450;2023-04-03T00:08:45;839.92;;;745.00;;
13368;SDS011;6753;52.520;13.450;2023-04-03T00:08:55;836.42;;;743.55;;
13368;SDS011;6753;52.520;13.450;2023-04-03T00:09:06;835.05;;;741.88;;
13368;SDS011;6753;52.520;13.450;2023-04-03T00:09:17;836.25;;;741.15;;
13368;SDS011;6753;52.520;13.450;2023-04-03T00:09:29;835.83;;;740.33;;
13368;SDS011;6753;52.520;13.450;2023-04-03T00:09:39;837.00;;;740.78;;
13368;SDS011;6753;52.520;13.450;2023-04-03T00:09:50;837.55;;;739.38;;
13368;SDS011;6753;52.520;13.450;2023-04-03T00:10:01;839.00;;;740.57;;
13368;SDS011;6753;52.520;13.450;2023-04-03T00:10:12;838.78;;;741.05;;
13368;SDS011;6753;52.520;13.450;2023-04-03T00:10:24;836.65;;;741.75;;
13368;SDS011;6753;52.520;13.450;2023-04-03T00:10:35;834.90;;;740.53;;
13368;SDS011;6753;52.520;13.450;2023-04-03T00:10:49;833.08;;;740.08;;
13368;SDS011;6753;52.520;13.450;2023-04-03T00:11:01;830.75;;;737.10;;
13368;SDS011;6753;52.520;13.450;2023-04-03T00:11:12;829.08;;;735.20;;
13368;SDS011;6753;52.520;13.450;2023-04-03T00:11:23;826.38;;;732.70;;
13368;SDS011;6753;52.520;13.450;2023-04-03T00:11:35;825.08;;;732.97;;
13368;SDS011;6753;52.520;13.450;2023-04-03T00:11:45;823.58;;;732.25;;
13368;SDS011;6753;52.520;13.450;2023-04-03T00:11:56;822.75;;;731.70;;
13368;SDS011;6753;52.520;13.450;2023-04-03T00:12:07;819.97;;;729.40;;
13368;SDS011;6753;52.520;13.450;2023-04-03T00:12:18;818.65;;;728.22;;
13368;SDS011;6753;52.520;13.450;2023-04-03T00:12:28;817.17;;;726.83;;
13368;SDS011;6753;52.520;13.450;2023-04-03T00:12:39;815.08;;;724.78;;
13368;SDS011;6753;52.520;13.450;2023-04-03T00:12:51;814.72;;;724.33;;
13368;SDS011;6753;52.520;13.450;2023-04-03T00:13:02;814.58;;;724.33;;
13368;SDS011;6753;52.520;13.450;2023-04-03T00:13:13;814.92;;;724.55;;
13368;SDS011;6753;52.520;13.450;2023-04-03T00:13:24;814.88;;;724.47;;
13368;SDS011;6753;52.520;13.450;2023-04-03T00:13:35;819.40;;;725.88;;
13368;SDS011;6753;52.520;13.450;2023-04-03T00:13:47;819.05;;;726.00;;
13368;SDS011;6753;52.520;13.450;2023-04-03T00:13:58;821.10;;;725.85;;
13368;SDS011;6753;52.520;13.450;2023-04-03T00:14:09;820.63;;;726.55;;
13368;SDS011;6753;52.520;13.450;2023-04-03T00:14:20;822.13;;;729.10;;
13368;SDS011;6753;52.520;13.450;2023-04-03T00:14:31;820.60;;;728.88;;
13368;SDS011;6753;52.520;13.450;2023-04-03T00:14:42;821.75;;;730.75;;
13368;SDS011;6753;52.520;13.450;2023-04-03T00:14:52;823.22;;;732.20;;
13368;SDS011;6753;52.520;13.450;2023-04-03T00:15:04;824.63;;;733.50;;
13368;SDS011;6753;52.520;13.450;2023-04-03T00:15:15;826.53;;;735.28;;
13368;SDS011;6753;52.520;13.450;2023-04-03T00:15:26;828.38;;;736.78;;
13368;SDS011;6753;52.520;13.450;2023-04-03T00:15:37;830.83;;;739.03;;
13368;SDS011;6753;52.520;13.450;2023-04-03T00:15:49;829.40;;;737.40;;
13368;SDS011;6753;52.520;13.450;2023-04-03T00:16:01;832.35;;;739.72;;
13368;SDS011;6753;52.520;13.450;2023-04-03T00:16:13;834.53;;;742.05;;
13368;SDS011;6753;52.520;13.450;2023-04-03T00:16:23;835.67;;;743.58;;
13368;SDS011;6753;52.520;13.450;2023-04-03T00:16:34;836.43;;;744.13;;
13368;SDS011;6753;52.520;13.450;2023-04-03T00:16:45;838.78;;;746.05;;
13368;SDS011;6753;52.520;13.450;2023-04-03T00:16:56;840.05;;;747.05;;
13368;SDS011;6753;52.520;13.450;2023-04-03T00:17:06;842.03;;;748.83;;
13368;SDS011;6753;52.520;13.450;2023-04-03T00:17:18;843.50;;;749.63;;
13368;SDS011;6753;52.520;13.450;2023-04-03T00:17:29;850.85;;;752.38;;
13368;SDS011;6753;52.520;13.450;2023-04-03T00:17:40;852.67;;;755.30;;
13368;SDS011;6753;52.520;13.450;2023-04-03T00:17:50;856.38;;;759.28;;
13368;SDS011;6753;52.520;13.450;2023-04-03T00:18:01;858.00;;;761.50;;
13368;SDS011;6753;52.520;13.450;2023-04-03T00:18:13;857.95;;;759.65;;
13368;SDS011;6753;52.520;13.450;2023-04-03T00:18:23;855.20;;;758.45;;
13368;SDS011;6753;52.520;13.450;2023-04-03T00:18:36;851.17;;;756.75;;
13368;SDS011;6753;52.520;13.450;2023-04-03T00:18:47;847.13;;;753.15;;
13368;SDS011;6753;52.520;13.450;2023-04-03T00:18:58;843.28;;;749.60;;
13368;SDS011;6753;52.520;13.450;2023-04-03T00:19:09;842.17;;;748.83;;
13368;SDS011;6753;52.520;13.450;2023-04-03T00:19:21;841.83;;;748.72;;
13368;SDS011;6753;52.520;13.450;2023-04-03T00:19:32;842.25;;;748.80;;
13368;SDS011;6753;52.520;13.450;2023-04-03T00:19:43;843.90;;;748.88;;
13368;SDS011;6753;52.520;13.450;2023-04-03T00:19:54;843.00;;;749.40;;
13368;SDS011;6753;52.520;13.450;2023-04-03T00:20:06;843.95;;;750.38;;
13368;SDS011;6753;52.520;13.450;2023-04-03T00:20:17;845.28;;;751.45;;
13368;SDS011;6753;52.520;13.450;2023-04-03T00:20:28;847.22;;;753.22;;
13368;SDS011;6753;52.520;13.450;2023-04-03T00:20:39;848.37;;;754.47;;
13368;SDS011;6753;52.520;13.450;2023-04-03T00:20:49;850.05;;;755.95;;
13368;SDS011;6753;52.520;13.450;2023-04-03T00:21:00;851.83;;;757.47;;
13368;SDS011;6753;52.520;13.450;2023-04-03T00:21:12;852.78;;;758.33;;
13368;SDS011;6753;52.520;13.450;2023-04-03T00:21:23;851.78;;;757.78;;
13368;SDS011;6753;52.520;13.450;2023-04-03T00:21:36;850.65;;;756.78;;
13368;SDS011;6753;52.520;13.450;2023-04-03T00:21:46;850.33;;;756.28;;
13368;SDS011;6753;52.520;13.450;2023-04-03T00:21:57;848.17;;;754.27;;
13368;SDS011;6753;52.520;13.450;2023-04-03T00:22:08;848.17;;;754.08;;
13368;SDS011;6753;52.520;13.450;2023-04-03T00:22:20;849.45;;;753.65;;
13368;SDS011;6753;52.520;13.450;2023-04-03T00:22:31;848.75;;;751.83;;
13368;SDS011;6753;52.520;13.450;2023-04-03T00:22:41;848.53;;;751.85;;
13368;SDS011;6753;52.520;13.450;2023-04-03T00:22:53;851.33;;;754.00;;
13368;SDS011;6753;52.520;13.450;2023-04-03T00:23:04;853.45;;;755.67;;
13368;SDS011;6753;52.520;13.450;2023-04-03T00:23:15;855.27;;;757.20;;
13368;SDS011;6753;52.520;13.450;2023-04-03T00:23:26;860.67;;;759.65;;
13368;SDS011;6753;52.520;13.450;2023-04-03T00:23:37;864.42;;;761.45;;
13368;SDS011;6753;52.520;13.450;2023-04-03T00:23:48;866.65;;;761.30;;
13368;SDS011;6753;52.520;13.450;2023-04-03T00:23:58;867.33;;;761.33;;
13368;SDS011;6753;52.520;13.450;2023-04-03T00:24:10;865.95;;;761.53;;
13368;SDS011;6753;52.520;13.450;2023-04-03T00:24:21;865.20;;;760.90;;
13368;SDS011;6753;52.520;13.450;2023-04-03T00:24:32;863.53;;;760.00;;
13368;SDS011;6753;52.520;13.450;2023-04-03T00:24:42;861.17;;;760.57;;
13368;SDS011;6753;52.520;13.450;2023-04-03T00:24:53;859.15;;;760.67;;
13368;SDS011;6753;52.520;13.450;2023-04-03T00:25:04;858.58;;;761.17;;
13368;SDS011;6753;52.520;13.450;2023-04-03T00:25:15;861.10;;;762.08;;
13368;SDS011;6753;52.520;13.450;2023-04-03T00:25:26;863.08;;;762.97;;
13368;SDS011;6753;52.520;13.450;2023-04-03T00:25:37;861.95;;;761.40;;
13368;SDS011;6753;52.520;13.450;2023-04-03T00:25:49;860.45;;;760.83;;
13368;SDS011;6753;52.520;13.450;2023-04-03T00:26:00;860.67;;;759.67;;
13368;SDS011;6753;52.520;13.450;2023-04-03T00:26:11;862.00;;;761.67;;
13368;SDS011;6753;52.520;13.450;2023-04-03T00:26:22;871.20;;;765.13;;
13368;SDS011;6753;52.520;13.450;2023-04-03T00:26:33;875.95;;;768.25;;
13368;SDS011;6753;52.520;13.450;2023-04-03T00:26:43;870.87;;;762.73;;
13368;SDS011;6753;52.520;13.450;2023-04-03T00:26:54;866.28;;;756.13;;
13368;SDS011;6753;52.520;13.450;2023-04-03T00:27:05;864.95;;;753.67;;
13368;SDS011;6753;52.520;13.450;2023-04-03T00:27:16;860.00;;;748.70;;
13368;SDS011;6753;52.520;13.450;2023-04-03T00:27:27;851.78;;;743.65;;
13368;SDS011;6753;52.520;13.450;2023-04-03T00:27:38;859.10;;;748.10;;
13368;SDS011;6753;52.520;13.450;2023-04-03T00:27:49;870.67;;;757.72;;
13368;SDS011;6753;52.520;13.450;2023-04-03T00:28:00;877.08;;;760.10;;
13368;SDS011;6753;52.520;13.450;2023-04-03T00:28:12;882.17;;;764.53;;
13368;SDS011;6753;52.520;13.450;2023-04-03T00:28:23;888.80;;;769.63;;
13368;SDS011;6753;52.520;13.450;2023-04-03T00:28:34;895.00;;;773.10;;
13368;SDS011;6753;52.520;13.450;2023-04-03T00:28:45;901.07;;;777.27;;
13368;SDS011;6753;52.520;13.450;2023-04-03T00:28:56;907.15;;;783.40;;
13368;SDS011;6753;52.520;13.450;2023-04-03T00:29:07;921.42;;;791.60;;
13368;SDS011;6753;52.520;13.450;2023-04-03T00:29:18;926.50;;;797.63;;
13368;SDS011;6753;52.520;13.450;2023-04-03T00:29:28;934.95;;;803.90;;
13368;SDS011;6753;52.520;13.450;2023-04-03T00:29:40;938.85;;;805.95;;
13368;SDS011;6753;52.520;13.450;2023-04-03T00:29:51;937.25;;;806.40;;
13368;SDS011;6753;52.520;13.450;2023-04-03T00:30:02;937.08;;;808.00;;
13368;SDS011;6753;52.520;13.450;2023-04-03T00:30:14;939.83;;;809.63;;
13368;SDS011;6753;52.520;13.450;2023-04-03T00:30:28;934.07;;;805.77;;
13368;SDS011;6753;52.520;13.450;2023-04-03T00:30:39;932.83;;;807.08;;
13368;SDS011;6753;52.520;13.450;2023-04-03T00:30:50;931.33;;;806.87;;
13368;SDS011;6753;52.520;13.450;2023-04-03T00:31:01;930.75;;;805.22;;
13368;SDS011;6753;52.520;13.450;2023-04-03T00:31:14;925.20;;;801.03;;
13368;SDS011;6753;52.520;13.450;2023-04-03T00:31:25;925.60;;;800.10;;
13368;SDS011;6753;52.520;13.450;2023-04-03T00:31:37;923.40;;;798.35;;
13368;SDS011;6753;52.520;13.450;2023-04-03T00:31:48;923.70;;;796.53;;
13368;SDS011;6753;52.520;13.450;2023-04-03T00:31:58;922.25;;;796.05;;
13368;SDS011;6753;52.520;13.450;2023-04-03T00:32:09;921.70;;;796.05;;
13368;SDS011;6753;52.520;13.450;2023-04-03T00:32:20;916.83;;;795.13;;
13368;SDS011;6753;52.520;13.450;2023-04-03T00:32:31;914.80;;;793.25;;
13368;SDS011;6753;52.520;13.450;2023-04-03T00:32:41;910.15;;;791.03;;
13368;SDS011;6753;52.520;13.450;2023-04-03T00:32:52;905.23;;;789.20;;
13368;SDS011;6753;52.520;13.450;2023-04-03T00:33:03;901.25;;;785.95;;
13368;SDS011;6753;52.520;13.450;2023-04-03T00:33:15;899.30;;;784.15;;
13368;SDS011;6753;52.520;13.450;2023-04-03T00:33:26;899.97;;;783.05;;
13368;SDS011;6753;52.520;13.450;2023-04-03T00:33:37;902.78;;;783.33;;
13368;SDS011;6753;52.520;13.450;2023-04-03T00:33:48;905.28;;;783.75;;
13368;SDS011;6753;52.520;13.450;2023-04-03T00:33:58;906.13;;;784.23;;
13368;SDS011;6753;52.520;13.450;2023-04-03T00:34:09;907.58;;;783.90;;
13368;SDS011;6753;52.520;13.450;2023-04-03T00:34:20;903.50;;;782.38;;
13368;SDS011;6753;52.520;13.450;2023-04-03T00:34:31;898.08;;;781.90;;
13368;SDS011;6753;52.520;13.450;2023-04-03T00:34:43;894.88;;;780.20;;
13368;SDS011;6753;52.520;13.450;2023-04-03T00:34:54;895.50;;;779.33;;
13368;SDS011;6753;52.520;13.450;2023-04-03T00:35:05;896.50;;;779.77;;
13368;SDS011;6753;52.520;13.450;2023-04-03T00:35:16;897.63;;;779.75;;
13368;SDS011;6753;52.520;13.450;2023-04-03T00:35:28;901.78;;;780.83;;
13368;SDS011;6753;52.520;13.450;2023-04-03T00:35:38;903.87;;;780.93;;
13368;SDS011;6753;52.520;13.450;2023-04-03T00:35:50;905.72;;;781.60;;
13368;SDS011;6753;52.520;13.450;2023-04-03T00:36:04;907.05;;;782.30;;
13368;SDS011;6753;52.520;13.450;2023-04-03T00:36:17;909.28;;;781.22;;
13368;SDS011;6753;52.520;13.450;2023-04-03T00:36:28;909.55;;;781.10;;
13368;SDS011;6753;52.520;13.450;2023-04-03T00:36:39;910.58;;;780.40;;
13368;SDS011;6753;52.520;13.450;2023-04-03T00:36:50;910.40;;;780.17;;
13368;SDS011;6753;52.520;13.450;2023-04-03T00:37:01;913.00;;;779.80;;
13368;SDS011;6753;52.520;13.450;2023-04-03T00:37:12;914.38;;;780.00;;
13368;SDS011;6753;52.520;13.450;2023-04-03T00:37:24;915.03;;;781.13;;
13368;SDS011;6753;52.520;13.450;2023-04-03T00:37:36;916.95;;;782.30;;
13368;SDS011;6753;52.520;13.450;2023-04-03T00:37:47;917.15;;;781.70;;
13368;SDS011;6753;52.520;13.450;2023-04-03T00:38:00;913.05;;;781.08;;
13368;SDS011;6753;52.520;13.450;2023-04-03T00:38:11;914.63;;;783.00;;
13368;SDS011;6753;52.520;13.450;2023-04-03T00:38:22;915.33;;;783.67;;
13368;SDS011;6753;52.520;13.450;2023-04-03T00:38:33;916.20;;;784.93;;
13368;SDS011;6753;52.520;13.450;2023-04-03T00:38:43;918.13;;;785.03;;
13368;SDS011;6753;52.520;13.450;2023-04-03T00:38:55;920.63;;;787.13;;
13368;SDS011;6753;52.520;13.450;2023-04-03T00:39:06;922.67;;;788.47;;
13368;SDS011;6753;52.520;13.450;2023-04-03T00:39:17;922.17;;;787.45;;
13368;SDS011;6753;52.520;13.450;2023-04-03T00:39:27;923.20;;;788.95;;
13368;SDS011;6753;52.520;13.450;2023-04-03T00:39:38;929.72;;;793.40;;
13368;SDS011;6753;52.520;13.450;2023-04-03T00:39:49;931.27;;;794.20;;
13368;SDS011;6753;52.520;13.450;2023-04-03T00:40:00;935.75;;;796.63;;
13368;SDS011;6753;52.520;13.450;2023-04-03T00:40:11;942.03;;;801.72;;
13368;SDS011;6753;52.520;13.450;2023-04-03T00:40:24;945.40;;;806.70;;
13368;SDS011;6753;52.520;13.450;2023-04-03T00:40:37;950.05;;;810.30;;
13368;SDS011;6753;52.520;13.450;2023-04-03T00:40:51;954.03;;;815.70;;
13368;SDS011;6753;52.520;13.450;2023-04-03T00:41:02;955.45;;;817.35;;
13368;SDS011;6753;52.520;13.450;2023-04-03T00:41:13;957.65;;;818.75;;
13368;SDS011;6753;52.520;13.450;2023-04-03T00:41:23;961.65;;;819.97;;
13368;SDS011;6753;52.520;13.450;2023-04-03T00:41:35;962.50;;;818.65;;
13368;SDS011;6753;52.520;13.450;2023-04-03T00:41:46;966.20;;;819.15;;
13368;SDS011;6753;52.520;13.450;2023-04-03T00:41:57;967.28;;;818.53;;
13368;SDS011;6753;52.520;13.450;2023-04-03T00:42:08;971.60;;;819.53;;
13368;SDS011;6753;52.520;13.450;2023-04-03T00:42:19;971.73;;;820.43;;
13368;SDS011;6753;52.520;13.450;2023-04-03T00:42:30;972.13;;;821.83;;
13368;SDS011;6753;52.520;13.450;2023-04-03T00:42:41;970.80;;;822.35;;
13368;SDS011;6753;52.520;13.450;2023-04-03T00:42:55;971.60;;;825.55;;
13368;SDS011;6753;52.520;13.450;2023-04-03T00:43:10;971.72;;;825.58;;
13368;SDS011;6753;52.520;13.450;2023-04-03T00:43:23;967.75;;;823.55;;
13368;SDS011;6753;52.520;13.450;2023-04-03T00:43:36;967.58;;;823.60;;
13368;SDS011;6753;52.520;13.450;2023-04-03T00:43:47;967.35;;;821.53;;
13368;SDS011;6753;52.520;13.450;2023-04-03T00:43:57;963.63;;;820.42;;
13368;SDS011;6753;52.520;13.450;2023-04-03T00:44:21;964.93;;;821.33;;
13368;SDS011;6753;52.520;13.450;2023-04-03T00:45:23;904.90;;;781.30;;
13368;SDS011;6753;52.520;13.450;2023-04-03T00:45:39;888.75;;;771.60;;
13368;SDS011;6753;52.520;13.450;2023-04-03T00:45:52;885.10;;;767.47;;
13368;SDS011;6753;52.520;13.450;2023-04-03T00:46:03;889.20;;;771.60;;
13368;SDS011;6753;52.520;13.450;2023-04-03T00:46:14;893.13;;;775.92;;
13368;SDS011;6753;52.520;13.450;2023-04-03T00:46:26;893.05;;;777.53;;
13368;SDS011;6753;52.520;13.450;2023-04-03T00:46:37;901.10;;;782.20;;
13368;SDS011;6753;52.520;13.450;2023-04-03T00:46:47;904.70;;;786.23;;
13368;SDS011;6753;52.520;13.450;2023-04-03T00:46:58;908.83;;;788.50;;
13368;SDS011;6753;52.520;13.450;2023-04-03T00:47:10;914.10;;;791.75;;
13368;SDS011;6753;52.520;13.450;2023-04-03T00:47:23;919.50;;;795.70;;
13368;SDS011;6753;52.520;13.450;2023-04-03T00:47:34;926.00;;;800.25;;
13368;SDS011;6753;52.520;13.450;2023-04-03T00:47:45;928.28;;;801.25;;
13368;SDS011;6753;52.520;13.450;2023-04-03T00:47:56;932.70;;;803.90;;
13368;SDS011;6753;52.520;13.450;2023-04-03T00:48:11;934.38;;;805.53;;
13368;SDS011;6753;52.520;13.450;2023-04-03T00:48:25;931.90;;;803.03;;
13368;SDS011;6753;52.520;13.450;2023-04-03T00:48:39;928.22;;;798.92;;
13368;SDS011;6753;52.520;13.450;2023-04-03T00:48:52;925.42;;;797.40;;
13368;SDS011;6753;52.520;13.450;2023-04-03T00:49:03;921.47;;;793.60;;
13368;SDS011;6753;52.520;13.450;2023-04-03T00:49:14;921.63;;;793.08;;
13368;SDS011;6753;52.520;13.450;2023-04-03T00:49:25;915.80;;;789.93;;
13368;SDS011;6753;52.520;13.450;2023-04-03T00:49:37;911.25;;;788.67;;
13368;SDS011;6753;52.520;13.450;2023-04-03T00:49:48;908.72;;;787.13;;
13368;SDS011;6753;52.520;13.450;2023-04-03T00:50:00;906.85;;;785.55;;
13368;SDS011;6753;52.520;13.450;2023-04-03T00:50:12;903.50;;;784.33;;
13368;SDS011;6753;52.520;13.450;2023-04-03T00:50:23;902.30;;;784.88;;
13368;SDS011;6753;52.520;13.450;2023-04-03T00:50:34;899.80;;;783.28;;
13368;SDS011;6753;52.520;13.450;2023-04-03T00:50:48;896.40;;;780.65;;
13368;SDS011;6753;52.520;13.450;2023-04-03T00:51:00;894.88;;;778.92;;
13368;SDS011;6753;52.520;13.450;2023-04-03T00:51:13;894.03;;;778.13;;
13368;SDS011;6753;52.520;13.450;2023-04-03T00:51:27;894.15;;;775.90;;
13368;SDS011;6753;52.520;13.450;2023-04-03T00:51:38;892.67;;;777.03;;
13368;SDS011;6753;52.520;13.450;2023-04-03T00:51:53;891.97;;;775.03;;
13368;SDS011;6753;52.520;13.450;2023-04-03T00:52:04;890.05;;;773.45;;
13368;SDS011;6753;52.520;13.450;2023-04-03T00:52:19;885.67;;;769.90;;
13368;SDS011;6753;52.520;13.450;2023-04-03T00:52:33;879.35;;;765.88;;
13368;SDS011;6753;52.520;13.450;2023-04-03T00:52:44;874.05;;;761.80;;
13368;SDS011;6753;52.520;13.450;2023-04-03T00:52:56;867.80;;;757.67;;
13368;SDS011;6753;52.520;13.450;2023-04-03T00:53:08;866.28;;;755.13;;
13368;SDS011;6753;52.520;13.450;2023-04-03T00:53:25;861.47;;;752.50;;
13368;SDS011;6753;52.520;13.450;2023-04-03T00:53:41;857.17;;;750.10;;
13368;SDS011;6753;52.520;13.450;2023-04-03T00:53:56;857.33;;;752.78;;
13368;SDS011;6753;52.520;13.450;2023-04-03T00:54:11;854.85;;;752.22;;
13368;SDS011;6753;52.520;13.450;2023-04-03T00:54:22;855.38;;;752.47;;
13368;SDS011;6753;52.520;13.450;2023-04-03T00:54:33;854.97;;;752.38;;
13368;SDS011;6753;52.520;13.450;2023-04-03T00:54:46;851.17;;;750.00;;
13368;SDS011;6753;52.520;13.450;2023-04-03T00:55:02;850.08;;;747.85;;
13368;SDS011;6753;52.520;13.450;2023-04-03T00:55:15;847.42;;;747.20;;
13368;SDS011;6753;52.520;13.450;2023-04-03T00:55:26;845.00;;;745.30;;
13368;SDS011;6753;52.520;13.450;2023-04-03T00:55:38;847.97;;;746.78;;
13368;SDS011;6753;52.520;13.450;2023-04-03T00:55:49;849.90;;;749.80;;
13368;SDS011;6753;52.520;13.450;2023-04-03T00:56:02;847.17;;;748.78;;
13368;SDS011;6753;52.520;13.450;2023-04-03T00:56:17;848.33;;;747.75;;
13368;SDS011;6753;52.520;13.450;2023-04-03T00:56:32;846.03;;;747.72;;
13368;SDS011;6753;52.520;13.450;2023-04-03T00:56:43;843.85;;;745.75;;
13368;SDS011;6753;52.520;13.450;2023-04-03T00:56:55;839.67;;;742.45;;
13368;SDS011;6753;52.520;13.450;2023-04-03T00:57:07;838.78;;;742.45;;
13368;SDS011;6753;52.520;13.450;2023-04-03T00:57:20;838.22;;;742.60;;
13368;SDS011;6753;52.520;13.450;2023-04-03T00:57:32;836.63;;;741.22;;
13368;SDS011;6753;52.520;13.450;2023-04-03T00:57:43;835.30;;;740.10;;
13368;SDS011;6753;52.520;13.450;2023-04-03T00:57:55;837.60;;;741.92;;
13368;SDS011;6753;52.520;13.450;2023-04-03T00:58:08;834.35;;;741.13;;
13368;SDS011;6753;52.520;13.450;2023-04-03T00:58:20;832.67;;;740.17;;
13368;SDS011;6753;52.520;13.450;2023-04-03T00:58:37;830.45;;;738.25;;
13368;SDS011;6753;52.520;13.450;2023-04-03T00:58:51;827.92;;;736.13;;
13368;SDS011;6753;52.520;13.450;2023-04-03T00:59:05;827.55;;;732.80;;
13368;SDS011;6753;52.520;13.450;2023-04-03T00:59:21;826.60;;;729.47;;
13368;SDS011;6753;52.520;13.450;2023-04-03T00:59:38;829.08;;;731.05;;
13368;SDS011;6753;52.520;13.450;2023-04-03T00:59:53;837.75;;;735.38;;
13368;SDS011;6753;52.520;13.450;2023-04-03T01:00:08;847.50;;;745.13;;
13368;SDS011;6753;52.520;13.450;2023-04-03T01:00:22;858.33;;;752.25;;
13368;SDS011;6753;52.520;13.450;2023-04-03T01:00:34;862.53;;;757.50;;
13368;SDS011;6753;52.520;13.450;2023-04-03T01:00:49;867.60;;;763.53;;
13368;SDS011;6753;52.520;13.450;2023-04-03T01:01:08;869.90;;;767.33;;
13368;SDS011;6753;52.520;13.450;2023-04-03T01:01:24;873.63;;;773.75;;
13368;SDS011;6753;52.520;13.450;2023-04-03T01:01:36;872.83;;;773.15;;
13368;SDS011;6753;52.520;13.450;2023-04-03T01:01:47;869.13;;;768.88;;
13368;SDS011;6753;52.520;13.450;2023-04-03T01:01:59;859.50;;;762.13;;
13368;SDS011;6753;52.520;13.450;2023-04-03T01:02:10;854.72;;;757.45;;
13368;SDS011;6753;52.520;13.450;2023-04-03T01:02:21;846.47;;;749.42;;
13368;SDS011;6753;52.520;13.450;2023-04-03T01:02:33;840.83;;;743.40;;
13368;SDS011;6753;52.520;13.450;2023-04-03T01:02:44;837.95;;;741.45;;
13368;SDS011;6753;52.520;13.450;2023-04-03T01:02:55;836.85;;;739.72;;
13368;SDS011;6753;52.520;13.450;2023-04-03T01:03:06;832.40;;;736.92;;
13368;SDS011;6753;52.520;13.450;2023-04-03T01:03:17;829.85;;;735.63;;
13368;SDS011;6753;52.520;13.450;2023-04-03T01:03:27;828.50;;;734.40;;
13368;SDS011;6753;52.520;13.450;2023-04-03T01:03:42;822.10;;;730.60;;
13368;SDS011;6753;52.520;13.450;2023-04-03T01:03:53;819.80;;;728.80;;
13368;SDS011;6753;52.520;13.450;2023-04-03T01:04:05;819.22;;;726.25;;
13368;SDS011;6753;52.520;13.450;2023-04-03T01:04:26;817.78;;;724.58;;
13368;SDS011;6753;52.520;13.450;2023-04-03T01:04:38;816.25;;;722.25;;
13368;SDS011;6753;52.520;13.450;2023-04-03T01:04:51;814.90;;;721.03;;
13368;SDS011;6753;52.520;13.450;2023-04-03T01:05:02;813.73;;;721.10;;
13368;SDS011;6753;52.520;13.450;2023-04-03T01:05:14;812.30;;;719.75;;
13368;SDS011;6753;52.520;13.450;2023-04-03T01:05:27;809.60;;;715.45;;
13368;SDS011;6753;52.520;13.450;2023-04-03T01:05:37;806.65;;;714.50;;
13368;SDS011;6753;52.520;13.450;2023-04-03T01:05:49;806.97;;;714.20;;
13368;SDS011;6753;52.520;13.450;2023-04-03T01:06:01;807.38;;;712.42;;
13368;SDS011;6753;52.520;13.450;2023-04-03T01:06:12;808.83;;;712.42;;
13368;SDS011;6753;52.520;13.450;2023-04-03T01:06:27;810.05;;;714.58;;
13368;SDS011;6753;52.520;13.450;2023-04-03T01:06:41;808.25;;;714.13;;
13368;SDS011;6753;52.520;13.450;2023-04-03T01:06:51;807.63;;;714.85;;
13368;SDS011;6753;52.520;13.450;2023-04-03T01:07:04;805.35;;;714.50;;
13368;SDS011;6753;52.520;13.450;2023-04-03T01:07:17;801.67;;;712.92;;
13368;SDS011;6753;52.520;13.450;2023-04-03T01:07:30;801.17;;;712.38;;